createdAt,value
2018-01-26T00:02:18.528Z,27.37
2018-01-26T00:04:45.681Z,28.15
2018-01-26T00:07:12.602Z,24.25
2018-01-26T00:09:39.783Z,28.73
2018-01-26T00:12:06.681Z,33.75
2018-01-26T00:14:33.565Z,31.12
2018-01-26T00:17:00.432Z,29.27
2018-01-26T00:19:27.556Z,36.40
2018-01-26T00:21:54.448Z,31.33
2018-01-26T00:24:21.361Z,34.50
2018-01-26T00:26:48.216Z,32.42
2018-01-26T00:29:15.118Z,31.23
2018-01-26T00:31:42.009Z,31.30
2018-01-26T00:34:08.921Z,37.38
2018-01-26T00:36:35.813Z,30.80
2018-01-26T00:39:03.027Z,29.65
2018-01-26T00:41:29.916Z,32.97
2018-01-26T00:43:56.818Z,31.17
2018-01-26T00:46:23.936Z,29.40
2018-01-26T00:48:51.130Z,29.83
2018-01-26T00:51:18.030Z,33.08
2018-01-26T00:53:45.220Z,34.05
2018-01-26T00:56:12.461Z,31.85
2018-01-26T00:58:39.344Z,34.08
2018-01-26T01:01:06.266Z,31.27
2018-01-26T01:03:33.505Z,29.87
2018-01-26T01:06:01.141Z,33.25
2018-01-26T01:08:28.320Z,37.30
2018-01-26T01:10:55.184Z,31.25
2018-01-26T01:13:22.416Z,28.75
2018-01-26T01:15:49.592Z,31.55
2018-01-26T01:18:16.440Z,36.33
2018-01-26T01:20:43.656Z,30.90
2018-01-26T01:23:10.913Z,29.45
2018-01-26T01:25:37.792Z,29.48
2018-01-26T01:28:04.668Z,30.40
2018-01-26T01:30:31.854Z,32.65
2018-01-26T01:32:58.748Z,30.50
2018-01-26T01:35:25.947Z,37.13
2018-01-26T01:37:52.808Z,37.40
2018-01-26T01:40:19.717Z,30.55
2018-01-26T01:42:46.621Z,31.50
2018-01-26T01:45:13.828Z,36.20
2018-01-26T01:47:40.720Z,34.00
2018-01-26T01:50:07.929Z,32.60
2018-01-26T01:52:34.800Z,30.17
2018-01-26T01:55:01.706Z,35.90
2018-01-26T01:57:28.864Z,35.17
2018-01-26T01:59:55.774Z,30.20
2018-01-26T02:02:22.958Z,36.10
2018-01-26T02:04:49.826Z,33.37
2018-01-26T02:07:17.061Z,35.50
2018-01-26T02:09:43.989Z,34.47
2018-01-26T02:12:11.148Z,31.05
2018-01-26T02:14:38.024Z,32.40
2018-01-26T02:17:05.251Z,35.35
2018-01-26T02:19:32.407Z,28.55
2018-01-26T02:21:59.300Z,29.95
2018-01-26T02:24:26.156Z,40.12
2018-01-26T02:26:53.342Z,32.85
2018-01-26T02:29:20.248Z,34.20
2018-01-26T02:31:47.428Z,38.13
2018-01-26T02:34:14.317Z,33.73
2018-01-26T02:36:41.197Z,39.58
2018-01-26T02:39:08.104Z,34.45
2018-01-26T02:41:35.284Z,40.88
2018-01-26T02:44:02.474Z,36.10
2018-01-26T02:46:29.332Z,38.67
2018-01-26T02:48:56.192Z,39.13
2018-01-26T02:51:23.103Z,37.87
2018-01-26T02:53:50.249Z,43.27
2018-01-26T02:56:17.146Z,36.38
2018-01-26T02:58:44.009Z,37.90
2018-01-26T03:01:10.857Z,39.27
2018-01-26T03:03:37.897Z,46.05
2018-01-26T03:06:05.085Z,42.93
2018-01-26T03:08:32.014Z,38.58
2018-01-26T03:10:59.176Z,48.65
2018-01-26T03:13:26.083Z,35.97
2018-01-26T03:15:53.277Z,37.70
2018-01-26T03:18:20.178Z,42.85
2018-01-26T03:20:47.072Z,41.05
2018-01-26T03:23:14.330Z,39.47
2018-01-26T03:25:41.471Z,39.40
2018-01-26T03:28:08.392Z,36.80
2018-01-26T03:30:35.298Z,43.53
2018-01-26T03:33:02.197Z,43.92
2018-01-26T03:35:29.106Z,46.63
2018-01-26T03:37:56.005Z,42.10
2018-01-26T03:40:22.916Z,42.72
2018-01-26T03:42:50.089Z,39.65
2018-01-26T03:45:17.342Z,48.10
2018-01-26T03:47:44.275Z,50.80
2018-01-26T03:50:11.170Z,51.72
2018-01-26T03:52:38.077Z,50.53
2018-01-26T03:55:04.940Z,49.43
2018-01-26T03:57:32.068Z,46.30
2018-01-26T03:59:59.212Z,54.00
2018-01-26T04:02:27.074Z,44.33
2018-01-26T04:04:53.956Z,43.13
2018-01-26T04:07:20.812Z,46.77
2018-01-26T04:09:47.725Z,47.90
2018-01-26T04:12:14.975Z,40.28
2018-01-26T04:14:41.848Z,40.42
2018-01-26T04:17:09.066Z,43.67
2018-01-26T04:19:35.973Z,39.78
2018-01-26T04:22:03.158Z,45.12
2018-01-26T04:24:30.064Z,43.90
2018-01-26T04:26:56.965Z,38.63
2018-01-26T04:29:24.013Z,35.33
2018-01-26T04:31:51.145Z,37.95
2018-01-26T04:34:18.303Z,39.08
2018-01-26T04:36:45.245Z,35.55
2018-01-26T04:39:12.340Z,36.38
2018-01-26T04:41:39.549Z,36.13
2018-01-26T04:44:06.409Z,38.88
2018-01-26T04:46:33.378Z,39.92
2018-01-26T04:49:00.294Z,36.38
2018-01-26T04:51:27.805Z,41.22
2018-01-26T04:53:54.702Z,38.60
2018-01-26T04:56:21.614Z,37.05
2018-01-26T04:58:48.515Z,36.40
2018-01-26T05:01:15.728Z,32.28
2018-01-26T05:03:42.619Z,33.17
2018-01-26T05:06:09.858Z,33.45
2018-01-26T05:08:36.737Z,34.67
2018-01-26T05:11:03.679Z,27.77
2018-01-26T05:13:30.586Z,30.77
2018-01-26T05:15:57.800Z,33.80
2018-01-26T05:18:24.747Z,38.92
2018-01-26T05:20:51.625Z,34.20
2018-01-26T05:23:18.542Z,36.53
2018-01-26T05:25:45.683Z,40.17
2018-01-26T05:28:12.840Z,36.97
2018-01-26T05:30:39.759Z,42.97
2018-01-26T05:33:06.640Z,42.92
2018-01-26T05:35:33.508Z,33.47
2018-01-26T05:38:00.745Z,33.33
2018-01-26T05:40:27.647Z,29.17
2018-01-26T05:42:54.546Z,34.47
2018-01-26T05:45:21.710Z,28.08
2018-01-26T05:47:48.642Z,35.42
2018-01-26T05:50:15.719Z,35.13
2018-01-26T05:52:42.615Z,33.80
2018-01-26T05:55:09.486Z,33.42
2018-01-26T05:57:36.597Z,40.92
2018-01-26T06:00:03.473Z,31.90
2018-01-26T06:02:30.722Z,34.53
2018-01-26T06:04:57.945Z,35.90
2018-01-26T06:07:25.060Z,36.35
2018-01-26T06:09:51.961Z,34.05
2018-01-26T06:12:19.113Z,40.03
2018-01-26T06:14:46.336Z,37.25
2018-01-26T06:17:13.245Z,41.20
2018-01-26T06:19:40.442Z,36.50
2018-01-26T06:22:07.337Z,38.90
2018-01-26T06:24:34.536Z,42.65
2018-01-26T06:27:01.686Z,38.03
2018-01-26T06:29:28.932Z,37.13
2018-01-26T06:31:56.089Z,38.00
2018-01-26T06:34:22.936Z,35.83
2018-01-26T06:36:50.188Z,38.23
2018-01-26T06:39:17.048Z,36.08
2018-01-26T06:41:43.908Z,42.90
2018-01-26T06:44:10.794Z,71.25
2018-01-26T06:46:37.676Z,41.93
2018-01-26T06:49:04.541Z,35.57
2018-01-26T06:51:31.648Z,34.47
2018-01-26T06:53:58.782Z,31.43
2018-01-26T06:56:25.949Z,34.88
2018-01-26T06:58:52.850Z,42.22
2018-01-26T07:01:20.073Z,36.13
2018-01-26T07:03:47.304Z,39.40
2018-01-26T07:06:14.234Z,38.08
2018-01-26T07:08:41.447Z,32.20
2018-01-26T07:11:08.300Z,36.50
2018-01-26T07:13:35.400Z,35.10
2018-01-26T07:16:02.646Z,30.27
2018-01-26T07:18:29.504Z,38.45
2018-01-26T07:20:56.741Z,38.00
2018-01-26T07:23:23.608Z,37.58
2018-01-26T07:25:50.464Z,31.65
2018-01-26T07:28:17.348Z,29.65
2018-01-26T07:30:44.523Z,37.13
2018-01-26T07:33:11.392Z,38.65
2018-01-26T07:35:38.269Z,37.22
2018-01-26T07:38:05.144Z,38.60
2018-01-26T07:40:32.009Z,36.10
2018-01-26T07:42:58.925Z,34.70
2018-01-26T07:45:26.088Z,35.47
2018-01-26T07:47:53.002Z,34.63
2018-01-26T07:50:20.809Z,28.90
2018-01-26T07:52:47.717Z,30.65
2018-01-26T07:55:14.576Z,58.53
2018-01-26T07:57:41.486Z,42.08
2018-01-26T08:00:08.350Z,42.20
2018-01-26T08:02:35.528Z,35.58
2018-01-26T08:05:02.676Z,56.63
2018-01-26T08:07:29.938Z,41.67
2018-01-26T08:09:57.080Z,39.30
2018-01-26T08:12:24.238Z,49.92
2018-01-26T08:14:51.380Z,76.18
2018-01-26T08:17:18.241Z,69.55
2018-01-26T08:19:45.112Z,54.92
2018-01-26T08:22:12.324Z,101.93
2018-01-26T08:24:39.250Z,91.87
2018-01-26T08:27:06.136Z,121.70
2018-01-26T08:29:33.004Z,257.92
2018-01-26T08:31:59.989Z,99.10
2018-01-26T08:34:26.844Z,194.82
2018-01-26T08:36:53.765Z,534.97
2018-01-26T08:39:20.669Z,78.97
2018-01-26T08:41:47.528Z,320.42
2018-01-26T08:44:14.728Z,258.23
2018-01-26T08:46:41.884Z,154.43
2018-01-26T08:49:08.815Z,127.07
2018-01-26T08:51:35.722Z,216.38
2018-01-26T08:54:02.920Z,224.23
2018-01-26T08:56:29.834Z,241.40
2018-01-26T08:58:56.731Z,243.30
2018-01-26T09:01:23.596Z,413.20
2018-01-26T09:03:51.114Z,335.75
2018-01-26T09:06:17.987Z,199.77
2018-01-26T09:08:44.871Z,278.40
2018-01-26T09:11:11.763Z,105.97
2018-01-26T09:13:38.908Z,107.97
2018-01-26T09:16:06.048Z,155.17
2018-01-26T09:18:32.925Z,95.47
2018-01-26T09:20:59.826Z,91.97
2018-01-26T09:23:27.091Z,135.70
2018-01-26T09:25:54.236Z,110.00
2018-01-26T09:28:21.131Z,164.73
2018-01-26T09:30:48.337Z,271.00
2018-01-26T09:33:15.482Z,84.57
2018-01-26T09:35:42.389Z,84.80
2018-01-26T09:38:09.308Z,73.62
2018-01-26T09:40:36.204Z,119.18
2018-01-26T09:43:03.141Z,92.88
2018-01-26T09:45:30.003Z,98.47
2018-01-26T09:47:56.888Z,105.80
2018-01-26T09:50:23.815Z,69.05
2018-01-26T09:52:50.691Z,70.93
2018-01-26T09:55:17.566Z,112.80
2018-01-26T09:57:44.431Z,93.10
2018-01-26T10:00:11.300Z,68.47
2018-01-26T10:02:38.179Z,58.97
2018-01-26T10:05:05.365Z,56.42
2018-01-26T10:07:32.516Z,56.15
2018-01-26T10:09:59.396Z,51.03
2018-01-26T10:12:26.298Z,51.53
2018-01-26T10:14:53.463Z,102.55
2018-01-26T10:17:20.366Z,192.75
2018-01-26T10:19:47.554Z,91.20
2018-01-26T10:22:14.494Z,384.10
2018-01-26T10:24:41.395Z,108.87
2018-01-26T10:27:08.306Z,177.65
2018-01-26T10:29:35.321Z,75.35
2018-01-26T10:32:02.355Z,146.40
2018-01-26T10:34:29.605Z,185.68
2018-01-26T10:36:56.870Z,202.07
2018-01-26T10:39:23.787Z,360.00
2018-01-26T10:41:51.041Z,100.80
2018-01-26T10:44:18.248Z,175.70
2018-01-26T10:46:45.493Z,97.43
2018-01-26T10:49:13.022Z,74.65
2018-01-26T10:51:39.906Z,70.55
2018-01-26T10:54:06.841Z,72.80
2018-01-26T10:56:33.732Z,69.97
2018-01-26T10:59:00.613Z,84.43
2018-01-26T11:01:27.662Z,89.97
2018-01-26T11:03:54.865Z,87.90
2018-01-26T11:06:22.081Z,64.57
2018-01-26T11:08:49.347Z,62.33
2018-01-26T11:11:16.456Z,62.00
2018-01-26T11:13:43.346Z,62.03
2018-01-26T11:16:10.234Z,56.22
2018-01-26T11:18:37.424Z,61.40
2018-01-26T11:21:04.305Z,70.62
2018-01-26T11:23:31.180Z,56.25
2018-01-26T11:25:58.358Z,69.03
2018-01-26T11:28:25.508Z,56.55
2018-01-26T11:30:52.770Z,56.73
2018-01-26T11:33:19.918Z,58.80
2018-01-26T11:35:47.064Z,59.50
2018-01-26T11:38:14.211Z,60.63
2018-01-26T11:40:41.370Z,60.17
2018-01-26T11:43:08.273Z,59.50
2018-01-26T11:45:35.465Z,62.10
2018-01-26T11:48:02.325Z,61.33
2018-01-26T11:50:29.204Z,61.83
2018-01-26T11:52:56.161Z,63.72
2018-01-26T11:55:23.024Z,58.25
2018-01-26T11:57:49.921Z,56.42
2018-01-26T12:00:16.800Z,57.62
2018-01-26T12:02:43.705Z,53.15
2018-01-26T12:05:10.605Z,52.92
2018-01-26T12:07:37.510Z,53.70
2018-01-26T12:10:04.410Z,54.67
2018-01-26T12:12:31.361Z,51.00
2018-01-26T12:14:58.230Z,47.07
2018-01-26T12:17:25.084Z,44.50
2018-01-26T12:19:52.294Z,50.30
2018-01-26T12:22:19.222Z,49.13
2018-01-26T12:24:46.139Z,49.42
2018-01-26T12:27:13.026Z,53.28
2018-01-26T12:29:39.947Z,55.55
2018-01-26T12:32:06.818Z,55.70
2018-01-26T12:34:33.781Z,65.07
2018-01-26T12:37:00.697Z,65.12
2018-01-26T12:39:27.614Z,63.45
2018-01-26T12:41:54.481Z,74.15
2018-01-26T12:44:21.381Z,65.75
2018-01-26T12:46:48.625Z,64.05
2018-01-26T12:49:15.497Z,68.22
2018-01-26T12:51:42.371Z,78.75
2018-01-26T12:54:09.255Z,70.47
2018-01-26T12:56:36.128Z,72.28
2018-01-26T12:59:03.013Z,67.18
2018-01-26T13:01:30.327Z,66.37
2018-01-26T13:03:57.518Z,64.62
2018-01-26T13:06:24.421Z,64.78
2018-01-26T13:08:51.608Z,61.42
2018-01-26T13:11:18.501Z,68.25
2018-01-26T13:13:45.390Z,65.28
2018-01-26T13:16:12.296Z,69.47
2018-01-26T13:18:39.214Z,64.97
2018-01-26T13:21:06.436Z,62.67
2018-01-26T13:23:33.330Z,61.30
2018-01-26T13:26:00.295Z,65.40
2018-01-26T13:28:27.479Z,61.60
2018-01-26T13:30:54.628Z,68.07
2018-01-26T13:33:21.782Z,64.97
2018-01-26T13:35:48.724Z,70.75
2018-01-26T13:38:15.625Z,64.35
2018-01-26T13:40:42.825Z,70.70
2018-01-26T13:43:09.977Z,69.25
2018-01-26T13:45:37.125Z,69.25
2018-01-26T13:48:04.030Z,69.70
2018-01-26T13:50:31.326Z,65.45
2018-01-26T13:52:58.214Z,63.97
2018-01-26T13:55:25.416Z,67.15
2018-01-26T13:57:52.305Z,71.82
2018-01-26T14:00:19.536Z,68.32
2018-01-26T14:02:46.413Z,69.25
2018-01-26T14:05:13.716Z,66.30
2018-01-26T14:07:40.804Z,68.80
2018-01-26T14:10:07.734Z,67.20
2018-01-26T14:12:34.661Z,70.85
2018-01-26T14:15:01.581Z,72.85
2018-01-26T14:17:28.537Z,66.00
2018-01-26T14:19:55.450Z,70.60
2018-01-26T14:22:22.586Z,67.43
2018-01-26T14:24:49.809Z,71.30
2018-01-26T14:27:16.671Z,73.62
2018-01-26T14:29:43.893Z,71.57
2018-01-26T14:32:11.036Z,69.75
2018-01-26T14:34:37.929Z,84.20
2018-01-26T14:37:04.874Z,68.70
2018-01-26T14:39:31.778Z,75.78
2018-01-26T14:41:59.026Z,67.50
2018-01-26T14:44:25.913Z,70.05
2018-01-26T14:46:52.855Z,66.87
2018-01-26T14:49:19.758Z,78.60
2018-01-26T14:51:47.117Z,64.68
2018-01-26T14:54:13.976Z,67.15
2018-01-26T14:56:40.877Z,72.32
2018-01-26T14:59:07.766Z,71.32
2018-01-26T15:01:34.893Z,66.65
2018-01-26T15:04:01.778Z,68.53
2018-01-26T15:06:28.683Z,61.78
2018-01-26T15:08:55.546Z,55.97
2018-01-26T15:11:22.408Z,60.70
2018-01-26T15:13:49.263Z,56.53
2018-01-26T15:16:16.466Z,56.53
2018-01-26T15:18:43.384Z,53.80
2018-01-26T15:21:10.565Z,60.45
2018-01-26T15:23:37.708Z,60.38
2018-01-26T15:26:04.564Z,61.30
2018-01-26T15:28:31.408Z,61.17
2018-01-26T15:30:58.268Z,55.88
2018-01-26T15:33:25.214Z,56.08
2018-01-26T15:35:52.092Z,64.87
2018-01-26T15:38:19.003Z,59.33
2018-01-26T15:40:46.229Z,56.67
2018-01-26T15:43:13.128Z,64.62
2018-01-26T15:45:40.326Z,65.53
2018-01-26T15:48:07.472Z,62.30
2018-01-26T15:50:34.357Z,62.25
2018-01-26T15:53:01.568Z,56.22
2018-01-26T15:55:28.482Z,56.88
2018-01-26T15:57:55.668Z,65.72
2018-01-26T16:00:22.600Z,53.75
2018-01-26T16:02:49.493Z,52.65
2018-01-26T16:05:16.398Z,54.28
2018-01-26T16:07:43.504Z,54.75
2018-01-26T16:10:10.384Z,56.88
2018-01-26T16:12:37.272Z,62.03
2018-01-26T16:15:04.597Z,54.08
2018-01-26T16:17:31.493Z,58.90
2018-01-26T16:19:58.684Z,59.80
2018-01-26T16:22:25.846Z,60.90
2018-01-26T16:24:52.707Z,66.20
2018-01-26T16:27:19.572Z,57.70
2018-01-26T16:29:46.448Z,55.08
2018-01-26T16:32:13.316Z,52.93
2018-01-26T16:34:40.460Z,58.57
2018-01-26T16:37:07.324Z,63.67
2018-01-26T16:39:34.246Z,59.00
2018-01-26T16:42:01.211Z,57.80
2018-01-26T16:44:28.150Z,65.45
2018-01-26T16:46:55.040Z,67.10
2018-01-26T16:49:21.953Z,62.70
2018-01-26T16:51:48.837Z,64.17
2018-01-26T16:54:15.746Z,70.80
2018-01-26T16:56:42.637Z,73.15
2018-01-26T16:59:09.560Z,64.50
2018-01-26T17:01:36.476Z,84.47
2018-01-26T17:04:03.373Z,76.50
2018-01-26T17:06:30.265Z,74.03
2018-01-26T17:08:57.140Z,82.05
2018-01-26T17:11:23.993Z,104.60
2018-01-26T17:13:50.940Z,102.25
2018-01-26T17:16:17.801Z,117.25
2018-01-26T17:18:44.969Z,105.65
2018-01-26T17:21:11.886Z,94.65
2018-01-26T17:23:38.769Z,83.37
2018-01-26T17:26:05.908Z,97.05
2018-01-26T17:28:32.834Z,83.20
2018-01-26T17:30:59.717Z,76.00
2018-01-26T17:33:26.868Z,69.53
2018-01-26T17:35:54.000Z,74.03
2018-01-26T17:38:21.149Z,77.82
2018-01-26T17:40:48.084Z,112.55
2018-01-26T17:43:14.976Z,92.78
2018-01-26T17:45:41.844Z,69.40
2018-01-26T17:48:09.032Z,66.60
2018-01-26T17:50:35.916Z,65.70
2018-01-26T17:53:02.833Z,81.65
2018-01-26T17:55:29.700Z,81.28
2018-01-26T17:57:56.560Z,78.15
2018-01-26T18:00:23.464Z,95.18
2018-01-26T18:02:50.406Z,104.45
2018-01-26T18:05:17.277Z,109.53
2018-01-26T18:07:44.496Z,96.22
2018-01-26T18:10:11.361Z,101.50
2018-01-26T18:12:38.493Z,117.07
2018-01-26T18:15:05.423Z,103.05
2018-01-26T18:17:32.584Z,91.78
2018-01-26T18:19:59.732Z,86.70
2018-01-26T18:22:27.013Z,83.55
2018-01-26T18:24:53.938Z,86.57
2018-01-26T18:27:21.084Z,88.10
2018-01-26T18:29:48.027Z,90.05
2018-01-26T18:32:14.884Z,83.65
2018-01-26T18:34:41.802Z,94.78
2018-01-26T18:37:08.686Z,82.78
2018-01-26T18:39:35.560Z,81.93
2018-01-26T18:42:03.477Z,80.55
2018-01-26T18:44:30.364Z,101.70
2018-01-26T18:46:58.069Z,77.65
2018-01-26T18:49:24.965Z,81.75
2018-01-26T18:51:51.862Z,78.75
2018-01-26T18:54:19.022Z,84.83
2018-01-26T18:56:45.913Z,88.18
2018-01-26T18:59:13.063Z,100.90
2018-01-26T19:01:40.271Z,94.72
2018-01-26T19:04:07.520Z,112.85
2018-01-26T19:06:34.431Z,97.15
2018-01-26T19:09:01.334Z,95.22
2018-01-26T19:11:28.560Z,76.55
2018-01-26T19:13:55.469Z,113.20
2018-01-26T19:16:22.728Z,60.70
2018-01-26T19:18:49.719Z,71.22
2018-01-26T19:21:16.963Z,78.65
2018-01-26T19:23:44.108Z,75.70
2018-01-26T19:26:11.362Z,76.37
2018-01-26T19:28:38.517Z,75.37
2018-01-26T19:31:05.665Z,65.62
2018-01-26T19:33:32.584Z,60.87
2018-01-26T19:35:59.466Z,63.77
2018-01-26T19:38:26.601Z,95.27
2018-01-26T19:40:53.472Z,65.28
2018-01-26T19:43:20.702Z,84.15
2018-01-26T19:45:47.584Z,75.87
2018-01-26T19:48:14.798Z,71.57
2018-01-26T19:50:41.680Z,77.20
2018-01-26T19:53:08.581Z,59.33
2018-01-26T19:55:35.737Z,72.40
2018-01-26T19:58:02.884Z,131.50
2018-01-26T20:00:30.136Z,87.90
2018-01-26T20:03:03.333Z,80.15
2018-01-26T20:05:48.912Z,69.20
2018-01-26T20:08:20.818Z,87.55
2018-01-26T20:10:47.684Z,71.05
2018-01-26T20:13:14.973Z,76.30
2018-01-26T20:15:41.906Z,73.57
2018-01-26T20:18:09.064Z,84.05
2018-01-26T20:20:36.216Z,102.40
2018-01-26T20:23:03.068Z,120.40
2018-01-26T20:25:30.713Z,87.83
2018-01-26T20:27:57.572Z,97.18
2018-01-26T20:30:24.429Z,93.75
2018-01-26T20:32:51.314Z,83.70
2018-01-26T20:35:18.507Z,87.50
2018-01-26T20:37:45.653Z,72.30
2018-01-26T20:40:12.818Z,87.90
2018-01-26T20:42:39.705Z,74.25
2018-01-26T20:45:06.608Z,71.75
2018-01-26T20:47:33.464Z,70.55
2018-01-26T20:50:00.328Z,70.83
2018-01-26T20:52:27.204Z,77.00
2018-01-26T20:54:54.065Z,88.72
2018-01-26T20:57:21.289Z,121.20
2018-01-26T20:59:48.173Z,91.25
2018-01-26T21:02:15.070Z,94.67
2018-01-26T21:04:42.266Z,101.03
2018-01-26T21:07:09.173Z,100.80
2018-01-26T21:09:36.070Z,79.50
2018-01-26T21:12:02.924Z,77.28
2018-01-26T21:14:30.149Z,96.47
2018-01-26T21:16:57.006Z,96.97
2018-01-26T21:19:24.962Z,73.67
2018-01-26T21:21:51.867Z,78.68
2018-01-26T21:24:18.765Z,84.15
2018-01-26T21:26:46.002Z,78.75
2018-01-26T21:29:12.864Z,96.55
2018-01-26T21:31:40.102Z,125.87
2018-01-26T21:34:07.349Z,95.65
2018-01-26T21:36:34.248Z,117.10
2018-01-26T21:39:01.113Z,119.90
2018-01-26T21:41:28.054Z,98.57
2018-01-26T21:43:55.239Z,141.30
2018-01-26T21:46:22.150Z,111.47
2018-01-26T21:48:49.012Z,139.27
2018-01-26T21:51:16.172Z,119.90
2018-01-26T21:53:43.096Z,113.80
2018-01-26T21:56:10.268Z,106.65
2018-01-26T21:58:37.162Z,104.78
2018-01-26T22:01:04.060Z,103.22
2018-01-26T22:03:31.203Z,86.12
2018-01-26T22:05:58.125Z,90.12
2018-01-26T22:08:24.984Z,96.43
2018-01-26T22:10:52.153Z,134.93
2018-01-26T22:13:19.077Z,130.63
2018-01-26T22:15:45.970Z,103.47
2018-01-26T22:18:12.865Z,101.35
2018-01-26T22:20:39.786Z,96.80
2018-01-26T22:23:06.653Z,102.20
2018-01-26T22:25:33.516Z,137.00
2018-01-26T22:28:00.447Z,124.25
2018-01-26T22:30:27.342Z,210.60
2018-01-26T22:32:54.240Z,96.60
2018-01-26T22:35:21.396Z,184.20
2018-01-26T22:37:48.247Z,130.43
2018-01-26T22:40:15.103Z,85.65
2018-01-26T22:42:42.006Z,92.37
2018-01-26T22:45:08.895Z,80.62
2018-01-26T22:47:35.824Z,70.25
2018-01-26T22:50:02.705Z,70.80
2018-01-26T22:52:29.917Z,67.37
2018-01-26T22:54:56.837Z,106.20
2018-01-26T22:57:24.008Z,109.18
2018-01-26T22:59:50.887Z,100.97
2018-01-26T23:02:18.110Z,101.22
2018-01-26T23:04:45.255Z,96.45
2018-01-26T23:07:12.513Z,94.22
2018-01-26T23:09:39.662Z,97.85
2018-01-26T23:12:06.577Z,96.37
2018-01-26T23:14:33.486Z,81.85
2018-01-26T23:17:00.385Z,84.82
2018-01-26T23:19:27.285Z,91.63
2018-01-26T23:21:54.193Z,76.78
2018-01-26T23:24:21.441Z,94.03
2018-01-26T23:26:48.362Z,82.07
2018-01-26T23:29:15.228Z,76.87
2018-01-26T23:31:42.158Z,67.03
2018-01-26T23:34:09.081Z,67.70
2018-01-26T23:36:35.981Z,80.90
2018-01-26T23:39:02.871Z,75.72
2018-01-26T23:41:29.736Z,72.78
2018-01-26T23:43:56.588Z,78.47
2018-01-26T23:46:23.736Z,69.18
2018-01-26T23:48:50.648Z,83.93
2018-01-26T23:51:17.514Z,80.12
2018-01-26T23:53:44.681Z,65.93
2018-01-26T23:56:11.934Z,69.53
2018-01-26T23:58:38.829Z,71.47
